Time;durP1;ratioP1;P1;durP2;ratioP2;P2;SDS_P1;SDS_P2;PMS_P1;PMS_P2;Temp;Humidity;BMP_temperature;BMP_pressure;BME280_temperature;BME280_humidity;BME280_pressure;Samples;Min_cycle;Max_cycle;Signal;HPM_P1;HPM_P2
2021/08/18 00:00:24;;;;;;;4.93;4.72;;;;;;;14.15;96.81;101154.34;4421648;32;20064;-70
2021/08/18 00:02:50;;;;;;;6.72;6.35;;;;;;;14.16;97.05;101157.84;4410418;32;21423;-71
2021/08/18 00:05:15;;;;;;;6.95;6.65;;;;;;;14.19;97.01;101162.06;4429098;32;20064;-71
2021/08/18 00:07:41;;;;;;;4.80;4.60;;;;;;;14.16;97.57;101160.47;4412476;32;20129;-70
2021/08/18 00:10:08;;;;;;;4.75;4.55;;;;;;;14.18;97.30;101169.16;4407060;32;20076;-69
2021/08/18 00:12:33;;;;;;;4.87;4.68;;;;;;;14.13;96.78;101168.56;4419959;32;20936;-69
2021/08/18 00:14:59;;;;;;;4.80;4.60;;;;;;;14.19;96.89;101165.56;4408292;32;20061;-69
2021/08/18 00:17:24;;;;;;;4.90;4.70;;;;;;;14.20;96.94;101166.44;4417231;32;20071;-71
2021/08/18 00:19:49;;;;;;;6.60;6.30;;;;;;;14.17;96.80;101162.16;4401199;32;20128;-70
2021/08/18 00:22:15;;;;;;;4.82;4.62;;;;;;;14.23;96.85;101164.47;4423776;32;20072;-70
2021/08/18 00:24:40;;;;;;;6.93;6.62;;;;;;;14.15;96.89;101153.47;4406829;32;20579;-71
2021/08/18 00:27:05;;;;;;;4.90;4.70;;;;;;;14.23;97.03;101160.94;4420568;32;20116;-71
2021/08/18 00:29:31;;;;;;;5.00;4.80;;;;;;;14.25;96.77;101159.94;4405716;32;20644;-70
2021/08/18 00:31:56;;;;;;;4.72;4.53;;;;;;;14.26;96.85;101160.78;4402791;32;20086;-71
2021/08/18 00:34:22;;;;;;;4.80;4.60;;;;;;;14.27;96.92;101152.78;4435461;32;20104;-70
2021/08/18 00:36:47;;;;;;;6.65;6.35;;;;;;;14.31;97.05;101146.38;4421265;32;20075;-69
2021/08/18 00:39:13;;;;;;;5.00;4.80;;;;;;;14.29;96.99;101150.03;4414065;32;20104;-69
2021/08/18 00:41:38;;;;;;;6.55;6.25;;;;;;;14.29;97.19;101155.28;4418926;32;20099;-69
2021/08/18 00:44:04;;;;;;;4.78;4.57;;;;;;;14.28;97.56;101154.47;4424067;32;20095;-69
2021/08/18 00:46:30;;;;;;;4.82;4.62;;;;;;;14.30;97.31;101149.94;4424152;32;20202;-69
2021/08/18 00:48:55;;;;;;;5.47;5.12;;;;;;;14.31;96.81;101148.13;4413589;32;20651;-69
2021/08/18 00:51:20;;;;;;;5.00;4.80;;;;;;;14.31;97.37;101153.41;4421173;32;20068;-70
2021/08/18 00:53:46;;;;;;;6.65;6.35;;;;;;;14.31;97.24;101145.50;4415461;32;20087;-69
2021/08/18 00:56:12;;;;;;;4.93;4.72;;;;;;;14.34;97.13;101147.97;4418802;32;20090;-69
2021/08/18 00:58:38;;;;;;;4.97;4.78;;;;;;;14.33;97.19;101141.84;4421191;32;20063;-69
2021/08/18 01:01:03;;;;;;;5.22;4.75;;;;;;;14.33;97.17;101147.12;4401522;32;20095;-69
2021/08/18 01:03:29;;;;;;;4.80;4.60;;;;;;;14.18;96.99;101124.28;4421952;32;20080;-69
2021/08/18 01:05:55;;;;;;;5.57;5.35;;;;;;;14.32;97.12;101150.69;4401623;32;20202;-69
2021/08/18 01:08:20;;;;;;;4.70;4.50;;;;;;;14.25;97.17;101132.66;4426164;32;20568;-70
2021/08/18 01:10:45;;;;;;;6.97;6.68;;;;;;;14.35;97.44;101147.00;4418179;32;20107;-68
2021/08/18 01:13:11;;;;;;;5.05;4.85;;;;;;;14.27;97.11;101130.78;4423660;32;20591;-69
2021/08/18 01:15:36;;;;;;;5.68;5.37;;;;;;;13.26;97.38;100985.50;4425051;32;20127;-69
2021/08/18 01:18:03;;;;;;;5.05;4.85;;;;;;;14.31;97.04;101143.72;4412185;32;21431;-69
2021/08/18 01:20:30;;;;;;;4.90;4.70;;;;;;;14.30;97.22;101144.66;4428567;32;20072;-69
2021/08/18 01:22:59;;;;;;;5.00;4.80;;;;;;;14.31;97.27;101142.84;4403526;32;20099;-69
2021/08/18 01:25:24;;;;;;;5.03;4.82;;;;;;;14.22;96.80;101132.88;4408221;32;20202;-69
2021/08/18 01:27:52;;;;;;;6.50;6.20;;;;;;;14.33;97.03;101151.53;4429481;32;20598;-69
2021/08/18 01:30:18;;;;;;;4.87;4.68;;;;;;;14.28;96.97;101145.69;4425383;32;20170;-69
2021/08/18 01:32:48;;;;;;;6.40;6.10;;;;;;;14.31;97.21;101158.69;4414452;32;20387;-69
2021/08/18 01:35:21;;;;;;;4.90;4.70;;;;;;;14.23;97.08;101145.97;4434346;32;20071;-69
2021/08/18 01:37:47;;;;;;;6.75;6.45;;;;;;;14.24;97.94;101157.38;4418744;32;20300;-69
2021/08/18 01:40:13;;;;;;;5.00;4.80;;;;;;;14.31;97.41;101154.28;4421262;32;20645;-69
2021/08/18 01:42:38;;;;;;;6.25;5.95;;;;;;;14.22;97.29;101149.56;4423717;32;20610;-68
2021/08/18 01:45:05;;;;;;;4.70;4.50;;;;;;;14.28;98.11;101158.91;4423772;32;20332;-69
2021/08/18 01:47:30;;;;;;;5.10;4.90;;;;;;;14.24;97.45;101150.31;4424249;32;20119;-70
2021/08/18 01:49:55;;;;;;;5.40;5.20;;;;;;;13.99;97.71;101102.56;4423756;32;20657;-69
2021/08/18 01:52:21;;;;;;;5.12;4.93;;;;;;;14.30;97.48;101157.84;4425172;32;20064;-70
2021/08/18 01:54:46;;;;;;;4.78;4.57;;;;;;;14.28;97.28;101156.25;4427205;32;20132;-69
2021/08/18 01:57:11;;;;;;;5.10;4.90;;;;;;;14.28;97.57;101164.19;4423120;32;20060;-69
2021/08/18 01:59:38;;;;;;;5.82;5.53;;;;;;;14.18;97.40;101144.56;4423283;32;20069;-70
2021/08/18 02:02:03;;;;;;;4.80;4.60;;;;;;;14.27;98.18;101155.41;4421582;32;20076;-69
2021/08/18 02:04:28;;;;;;;5.15;4.95;;;;;;;14.25;97.65;101162.56;4426162;32;20064;-71
2021/08/18 02:06:54;;;;;;;5.75;5.45;;;;;;;14.25;97.60;101164.34;4409157;32;20943;-68
2021/08/18 02:09:19;;;;;;;4.50;4.30;;;;;;;14.25;97.33;101159.94;4413914;32;20340;-69
2021/08/18 02:11:44;;;;;;;5.03;4.82;;;;;;;14.24;97.40;101152.94;4410230;32;20075;-69
2021/08/18 02:14:10;;;;;;;4.95;4.75;;;;;;;14.23;97.58;101156.53;4411863;32;20072;-69
2021/08/18 02:16:35;;;;;;;5.00;4.80;;;;;;;14.24;98.02;101163.50;4408454;32;20087;-69
2021/08/18 02:19:00;;;;;;;4.75;4.55;;;;;;;13.81;97.58;101091.31;4420490;32;20064;-69
2021/08/18 02:21:26;;;;;;;4.78;4.57;;;;;;;14.21;98.05;101161.03;4413766;32;20494;-68
2021/08/18 02:23:51;;;;;;;6.70;6.40;;;;;;;14.23;97.91;101167.09;4412680;32;20532;-70
2021/08/18 02:26:16;;;;;;;5.15;4.95;;;;;;;14.22;97.57;101170.66;4418556;32;20048;-70
2021/08/18 02:28:42;;;;;;;5.30;5.00;;;;;;;14.22;98.27;101167.19;4412127;32;20096;-69
2021/08/18 02:31:09;;;;;;;5.18;4.93;;;;;;;14.23;97.94;101172.37;4430733;32;20165;-70
2021/08/18 02:33:35;;;;;;;5.10;4.87;;;;;;;14.24;97.82;101167.94;4412492;32;20716;-69
2021/08/18 02:36:00;;;;;;;4.62;4.43;;;;;;;14.25;98.28;101181.06;4409520;32;21468;-69
2021/08/18 02:38:25;;;;;;;5.50;5.20;;;;;;;14.25;98.38;101175.78;4412193;32;20060;-69
2021/08/18 02:40:51;;;;;;;7.10;6.80;;;;;;;14.25;97.89;101165.22;4405589;32;20059;-69
2021/08/18 02:43:16;;;;;;;5.00;4.80;;;;;;;14.27;98.32;101173.91;4413325;32;20080;-69
2021/08/18 02:45:42;;;;;;;4.90;4.70;;;;;;;14.26;97.88;101172.19;4411717;32;20080;-68
2021/08/18 02:48:07;;;;;;;4.82;4.62;;;;;;;14.09;97.92;101144.16;4405801;32;20700;-69
2021/08/18 02:50:32;;;;;;;4.90;4.70;;;;;;;14.27;98.47;101163.34;4411458;32;20061;-70
2021/08/18 02:52:58;;;;;;;4.80;4.60;;;;;;;14.27;98.20;101165.09;4412159;32;20084;-69
2021/08/18 02:55:23;;;;;;;5.55;5.25;;;;;;;14.28;98.36;101170.28;4410827;32;20065;-69
2021/08/18 02:57:48;;;;;;;7.35;7.00;;;;;;;14.29;97.80;101171.12;4403093;32;20072;-70
2021/08/18 03:00:14;;;;;;;4.70;4.50;;;;;;;14.29;98.25;101166.72;4406478;32;20138;-71
2021/08/18 03:02:40;;;;;;;6.15;5.85;;;;;;;14.29;98.14;101161.44;4414714;32;20064;-70
2021/08/18 03:05:05;;;;;;;5.45;5.20;;;;;;;14.28;98.11;101154.47;4406591;32;20594;-70
2021/08/18 03:07:31;;;;;;;5.45;5.20;;;;;;;14.32;97.47;101158.59;4427843;32;20121;-70
2021/08/18 03:09:56;;;;;;;5.00;4.80;;;;;;;14.24;97.79;101150.31;4407877;32;20072;-70
2021/08/18 03:12:21;;;;;;;4.80;4.60;;;;;;;14.23;98.01;101153.91;4411127;32;20068;-70
2021/08/18 03:14:47;;;;;;;5.00;4.80;;;;;;;13.17;97.27;100979.00;4425762;32;20573;-71
2021/08/18 03:17:12;;;;;;;5.90;5.60;;;;;;;14.29;97.76;101157.94;4416884;32;20336;-69
2021/08/18 03:19:38;;;;;;;6.75;6.35;;;;;;;14.28;97.40;101153.62;4408920;32;20299;-69
2021/08/18 03:22:03;;;;;;;4.80;4.60;;;;;;;14.26;97.85;101163.41;4413896;32;20428;-69
2021/08/18 03:24:29;;;;;;;5.30;4.87;;;;;;;14.25;98.27;101156.44;4416703;32;20079;-68
2021/08/18 03:26:54;;;;;;;4.70;4.50;;;;;;;14.25;97.40;101149.37;4403621;32;20072;-69
2021/08/18 03:29:19;;;;;;;5.20;5.00;;;;;;;14.25;97.93;101152.03;4424435;32;20075;-69
2021/08/18 03:31:45;;;;;;;6.70;6.40;;;;;;;14.24;97.47;101147.66;4409983;32;20075;-71
2021/08/18 03:34:10;;;;;;;4.90;4.70;;;;;;;14.25;97.97;101162.56;4434100;32;20937;-71
2021/08/18 03:36:35;;;;;;;5.57;5.32;;;;;;;14.20;97.42;101167.28;4412298;32;20083;-69
2021/08/18 03:39:01;;;;;;;4.93;4.72;;;;;;;14.19;97.52;101168.19;4425133;32;20059;-71
2021/08/18 03:41:26;;;;;;;5.45;5.15;;;;;;;14.20;98.10;101172.56;4409143;32;20446;-71
2021/08/18 03:43:52;;;;;;;5.03;4.82;;;;;;;14.20;97.80;101167.28;4428396;32;20585;-69
2021/08/18 03:46:17;;;;;;;5.10;4.80;;;;;;;13.18;97.59;101000.94;4411382;32;20057;-69
2021/08/18 03:48:42;;;;;;;4.80;4.60;;;;;;;14.21;98.12;101170.75;4428120;32;20083;-69
2021/08/18 03:51:08;;;;;;;4.82;4.62;;;;;;;14.21;97.65;101168.94;4423942;32;20080;-69
2021/08/18 03:53:33;;;;;;;4.97;4.78;;;;;;;14.23;97.69;101174.16;4440511;32;20068;-69
2021/08/18 03:55:58;;;;;;;4.87;4.62;;;;;;;14.23;97.87;101168.87;4424480;32;20088;-69
2021/08/18 03:58:24;;;;;;;4.90;4.70;;;;;;;14.18;98.60;101152.47;4439835;32;20138;-69
2021/08/18 04:00:49;;;;;;;5.10;4.90;;;;;;;14.25;97.81;101170.50;4409588;32;21012;-68
2021/08/18 04:03:14;;;;;;;4.70;4.50;;;;;;;14.24;98.29;101166.16;4443923;32;20123;-71
2021/08/18 04:05:40;;;;;;;6.70;6.40;;;;;;;14.25;97.76;101165.22;4413644;32;20061;-71
2021/08/18 04:08:07;;;;;;;5.20;4.97;;;;;;;14.25;98.09;101165.22;4412292;32;20092;-70
2021/08/18 04:10:32;;;;;;;4.90;4.70;;;;;;;14.25;97.78;101164.34;4412256;32;20608;-70
2021/08/18 04:12:58;;;;;;;5.00;4.80;;;;;;;14.24;97.68;101166.16;4409147;32;20064;-70
2021/08/18 04:15:28;;;;;;;4.80;4.55;;;;;;;14.26;98.38;101166.06;4426474;32;20083;-71
2021/08/18 04:17:54;;;;;;;5.40;5.10;;;;;;;14.25;98.06;101164.34;4421706;32;20078;-70
2021/08/18 04:20:19;;;;;;;4.90;4.70;;;;;;;14.24;97.77;101168.78;4432212;32;20072;-71
2021/08/18 04:22:46;;;;;;;6.82;6.50;;;;;;;14.24;98.06;101170.59;4421660;32;20130;-70
2021/08/18 04:25:12;;;;;;;4.80;4.60;;;;;;;14.24;98.06;101171.44;4414826;32;20136;-69
2021/08/18 04:27:38;;;;;;;5.87;5.60;;;;;;;14.25;98.74;101165.22;4425577;32;20650;-70
2021/08/18 04:30:04;;;;;;;5.50;5.20;;;;;;;14.24;98.40;101158.22;4416265;32;20063;-70
2021/08/18 04:32:30;;;;;;;4.80;4.60;;;;;;;14.25;98.14;101165.22;4429917;32;20269;-70
2021/08/18 04:34:55;;;;;;;5.10;4.90;;;;;;;14.22;98.24;101160.09;4409706;32;20111;-71
2021/08/18 04:37:20;;;;;;;4.80;4.60;;;;;;;14.28;98.33;101175.56;4424225;32;20510;-70
2021/08/18 04:39:46;;;;;;;6.53;6.22;;;;;;;13.89;98.36;101107.53;4421602;32;20067;-71
2021/08/18 04:42:11;;;;;;;5.10;4.90;;;;;;;14.27;98.78;101168.63;4432897;32;20204;-71
2021/08/18 04:44:36;;;;;;;5.87;5.60;;;;;;;14.33;98.56;101173.53;4433316;32;20087;-71
2021/08/18 04:47:02;;;;;;;4.95;4.75;;;;;;;14.35;98.49;101166.34;4420315;32;20071;-70
2021/08/18 04:49:27;;;;;;;4.80;4.60;;;;;;;14.40;98.73;101168.72;4424803;32;20075;-70
2021/08/18 04:51:53;;;;;;;5.78;5.47;;;;;;;14.42;98.88;101171.25;4426694;32;20083;-71
2021/08/18 04:54:18;;;;;;;5.30;5.10;;;;;;;14.39;98.15;101160.88;4420803;32;20083;-71
2021/08/18 04:56:43;;;;;;;7.47;7.12;;;;;;;14.45;98.05;101163.13;4426017;32;20172;-70
2021/08/18 04:59:09;;;;;;;5.60;5.20;;;;;;;14.49;98.91;101164.66;4420220;32;20504;-71
2021/08/18 05:01:34;;;;;;;5.10;4.90;;;;;;;14.49;98.25;101165.53;4437768;32;20235;-70
2021/08/18 05:03:59;;;;;;;5.03;4.82;;;;;;;14.51;98.44;101162.75;4430870;32;20084;-71
2021/08/18 05:06:25;;;;;;;4.90;4.70;;;;;;;14.56;98.00;101172.13;4427289;32;20139;-71
2021/08/18 05:08:50;;;;;;;5.00;4.80;;;;;;;14.56;97.72;101158.09;4420789;32;20281;-71
2021/08/18 05:11:15;;;;;;;5.05;4.85;;;;;;;14.60;98.51;101153.47;4438153;32;20068;-71
2021/08/18 05:13:41;;;;;;;6.95;6.65;;;;;;;14.62;98.49;101148.94;4424551;32;20079;-71
2021/08/18 05:16:06;;;;;;;5.53;5.15;;;;;;;14.64;98.34;101149.69;4435996;32;20072;-71
2021/08/18 05:18:32;;;;;;;5.00;4.80;;;;;;;14.68;98.47;101154.69;4432138;32;20079;-71
2021/08/18 05:20:57;;;;;;;5.72;5.43;;;;;;;14.43;97.44;101113.06;4428310;32;20649;-71
2021/08/18 05:23:22;;;;;;;4.90;4.70;;;;;;;14.72;97.86;101150.06;4426418;32;20055;-71
2021/08/18 05:25:48;;;;;;;7.68;7.28;;;;;;;14.82;97.45;101159.13;4428425;32;20732;-71
2021/08/18 05:28:13;;;;;;;4.80;4.60;;;;;;;14.86;97.39;101154.50;4428130;32;20064;-70
2021/08/18 05:30:39;;;;;;;5.30;5.10;;;;;;;14.91;97.18;101160.31;4434241;32;20086;-71
2021/08/18 05:33:04;;;;;;;5.70;5.40;;;;;;;14.90;96.96;101156.84;4442527;32;20088;-72
2021/08/18 05:35:30;;;;;;;5.65;5.35;;;;;;;14.96;97.34;101163.53;4424863;32;20083;-71
2021/08/18 05:37:55;;;;;;;6.20;5.90;;;;;;;15.02;97.29;101170.22;4421070;32;20859;-70
2021/08/18 05:40:20;;;;;;;5.72;5.30;;;;;;;15.12;96.76;101155.47;4424231;32;20068;-70
2021/08/18 05:42:46;;;;;;;4.80;4.60;;;;;;;15.11;96.11;101159.94;4438357;32;20068;-70
2021/08/18 05:45:11;;;;;;;8.48;8.07;;;;;;;15.20;95.59;101165.56;4415922;32;20071;-72
2021/08/18 05:47:37;;;;;;;5.43;5.12;;;;;;;15.23;95.97;101165.34;4422031;32;20080;-70
2021/08/18 05:50:03;;;;;;;5.37;5.18;;;;;;;15.30;95.49;101164.88;4409449;32;20091;-70
2021/08/18 05:52:28;;;;;;;5.30;5.10;;;;;;;15.35;94.54;101172.50;4418342;32;20056;-71
2021/08/18 05:54:53;;;;;;;6.82;6.43;;;;;;;15.43;94.70;101175.47;4403254;32;20678;-73
2021/08/18 05:57:19;;;;;;;4.78;4.57;;;;;;;15.53;94.77;101167.81;4408280;32;20405;-71
2021/08/18 05:59:44;;;;;;;7.12;6.78;;;;;;;15.58;94.32;101167.53;4430088;32;20910;-72
2021/08/18 06:02:09;;;;;;;5.50;5.30;;;;;;;15.61;94.42;101173.44;4412382;32;20113;-70
2021/08/18 06:04:35;;;;;;;6.62;5.35;;;;;;;15.62;93.26;101159.28;4439236;32;20069;-70
2021/08/18 06:07:00;;;;;;;5.18;4.87;;;;;;;15.70;92.90;101161.41;4412151;32;20850;-69
2021/08/18 06:09:26;;;;;;;5.65;5.35;;;;;;;15.75;93.54;101159.31;4432604;32;20082;-68
2021/08/18 06:11:51;;;;;;;7.32;6.97;;;;;;;15.83;92.79;101157.00;4403035;32;20072;-69
2021/08/18 06:14:16;;;;;;;5.87;5.57;;;;;;;15.81;92.59;101164.22;4409195;32;20983;-70
2021/08/18 06:16:42;;;;;;;7.30;6.90;;;;;;;15.93;91.42;101165.19;4410057;32;20684;-70
2021/08/18 06:19:08;;;;;;;5.35;5.15;;;;;;;16.02;91.80;101169.03;4419710;32;20069;-71
2021/08/18 06:21:33;;;;;;;5.32;5.10;;;;;;;15.22;91.38;101040.25;4405126;32;20091;-70
2021/08/18 06:24:07;;;;;;;6.78;6.47;;;;;;;16.15;90.59;101170.72;4408844;32;20071;-68
2021/08/18 06:26:32;;;;;;;6.03;5.72;;;;;;;16.25;90.90;101167.47;4413969;32;20104;-69
2021/08/18 06:28:57;;;;;;;6.43;6.12;;;;;;;16.39;89.79;101164.69;4433323;32;20864;-69
2021/08/18 06:31:23;;;;;;;5.57;5.20;;;;;;;16.39;90.10;101161.22;4414324;32;20098;-70
2021/08/18 06:33:49;;;;;;;7.95;7.55;;;;;;;16.50;89.78;101177.22;4407140;32;20064;-68
2021/08/18 06:36:14;;;;;;;6.43;5.93;;;;;;;16.32;88.80;101174.88;4424775;32;20061;-69
2021/08/18 06:38:39;;;;;;;5.62;5.32;;;;;;;16.40;89.65;101179.66;4426860;32;20121;-69
2021/08/18 06:41:05;;;;;;;5.22;5.03;;;;;;;16.49;89.52;101176.34;4410049;32;20076;-70
2021/08/18 06:43:30;;;;;;;5.70;5.40;;;;;;;16.60;88.11;101172.97;4432501;32;20169;-70
2021/08/18 06:45:56;;;;;;;5.47;5.12;;;;;;;16.67;87.60;101182.16;4426936;32;20083;-69
2021/08/18 06:48:21;;;;;;;6.00;5.70;;;;;;;16.77;88.16;101184.19;4409545;32;20566;-70
2021/08/18 06:50:46;;;;;;;8.20;7.53;;;;;;;16.75;87.14;101181.63;4405920;32;20068;-70
2021/08/18 06:53:12;;;;;;;5.72;5.40;;;;;;;16.77;86.80;101181.53;4410537;32;20064;-70
2021/08/18 06:55:37;;;;;;;6.95;6.57;;;;;;;16.69;87.16;101182.06;4411565;32;20107;-70
2021/08/18 06:58:02;;;;;;;5.62;5.40;;;;;;;16.70;87.48;101186.44;4409536;32;20092;-70
2021/08/18 07:00:28;;;;;;;6.47;6.07;;;;;;;16.58;87.17;101179.31;4411923;32;20858;-70
2021/08/18 07:02:53;;;;;;;5.45;5.15;;;;;;;16.60;87.03;101177.41;4414454;32;20656;-69
2021/08/18 07:05:19;;;;;;;6.37;5.95;;;;;;;16.64;86.16;101186.84;4415877;32;20102;-70
2021/08/18 07:07:44;;;;;;;7.43;7.03;;;;;;;16.66;87.30;101185.78;4410826;32;20063;-68
2021/08/18 07:10:10;;;;;;;5.60;5.30;;;;;;;16.65;87.64;101192.03;4414160;32;20068;-71
2021/08/18 07:12:36;;;;;;;5.97;5.57;;;;;;;16.65;87.25;101186.72;4411730;32;20151;-71
2021/08/18 07:15:01;;;;;;;5.85;5.55;;;;;;;16.60;87.45;101180.91;4405685;32;20640;-71
2021/08/18 07:17:26;;;;;;;5.50;5.20;;;;;;;16.73;87.56;101191.50;4426549;32;20083;-68
2021/08/18 07:19:52;;;;;;;7.85;7.35;;;;;;;16.75;86.97;101192.25;4415175;32;20068;-69
2021/08/18 07:22:17;;;;;;;6.07;5.78;;;;;;;16.67;86.52;101178.69;4426966;32;20068;-70
2021/08/18 07:24:42;;;;;;;6.87;6.57;;;;;;;16.82;86.19;101171.47;4406228;32;20064;-69
2021/08/18 07:27:08;;;;;;;5.87;5.40;;;;;;;16.84;85.93;101183.69;4422305;32;20663;-70
2021/08/18 07:29:33;;;;;;;5.65;5.35;;;;;;;17.10;86.35;101200.38;4409589;32;20076;-69
2021/08/18 07:31:58;;;;;;;5.90;5.60;;;;;;;17.26;85.93;101184.22;4419975;32;20377;-69
2021/08/18 07:34:24;;;;;;;6.30;5.80;;;;;;;17.47;84.78;101186.25;4420998;32;20067;-69
2021/08/18 07:36:49;;;;;;;7.20;6.70;;;;;;;17.35;82.29;101178.22;4410793;32;20079;-69
2021/08/18 07:39:14;;;;;;;5.57;5.28;;;;;;;17.39;83.38;101176.19;4422196;32;20114;-69
2021/08/18 07:41:40;;;;;;;7.78;7.32;;;;;;;17.45;83.42;101178.38;4414432;32;20071;-69
2021/08/18 07:44:05;;;;;;;5.87;5.57;;;;;;;17.53;83.27;101178.66;4431797;32;20067;-70
2021/08/18 07:46:31;;;;;;;5.93;5.43;;;;;;;17.40;83.14;101161.97;4408304;32;20109;-70
2021/08/18 07:48:56;;;;;;;6.28;5.85;;;;;;;17.55;84.38;101183.88;4415723;32;20072;-68
2021/08/18 07:51:21;;;;;;;6.18;5.87;;;;;;;17.51;82.92;101185.06;4441551;32;20119;-70
2021/08/18 07:53:47;;;;;;;7.47;7.07;;;;;;;17.38;83.22;101185.13;4406434;32;20549;-68
2021/08/18 07:56:12;;;;;;;6.10;5.80;;;;;;;17.15;84.80;101189.44;4425100;32;20088;-69
2021/08/18 07:58:37;;;;;;;5.93;5.57;;;;;;;16.97;85.85;101188.94;4408224;32;20092;-70
2021/08/18 08:01:04;;;;;;;5.47;5.15;;;;;;;16.95;84.80;101196.16;4418462;32;20076;-69
2021/08/18 08:03:30;;;;;;;5.50;5.20;;;;;;;16.91;85.59;101197.34;4423360;32;20455;-69
2021/08/18 08:05:55;;;;;;;5.75;5.45;;;;;;;16.95;85.75;101207.59;4411708;32;20059;-70
2021/08/18 08:08:20;;;;;;;5.97;5.68;;;;;;;17.00;85.92;101195.81;4415469;32;20069;-69
2021/08/18 08:10:46;;;;;;;7.28;6.95;;;;;;;16.39;86.89;101085.22;4414665;32;20606;-71
2021/08/18 08:13:11;;;;;;;8.35;7.93;;;;;;;17.08;85.94;101202.28;4428257;32;20486;-71
2021/08/18 08:15:36;;;;;;;5.90;5.50;;;;;;;17.08;85.20;101202.28;4420483;32;20076;-69
2021/08/18 08:18:02;;;;;;;5.65;5.45;;;;;;;17.10;86.47;101203.03;4422725;32;20076;-67
2021/08/18 08:20:27;;;;;;;5.90;5.60;;;;;;;17.23;86.42;101207.44;4435673;32;20136;-69
2021/08/18 08:22:54;;;;;;;6.97;6.68;;;;;;;17.28;86.40;101207.94;4416679;32;20149;-69
2021/08/18 08:25:19;;;;;;;5.43;5.22;;;;;;;17.45;85.79;101204.94;4419793;32;20673;-70
2021/08/18 08:27:45;;;;;;;5.87;5.57;;;;;;;17.35;84.57;101188.00;4425749;32;20084;-67
2021/08/18 08:30:10;;;;;;;5.70;5.40;;;;;;;17.22;84.63;101196.00;4424524;32;20137;-69
2021/08/18 08:32:37;;;;;;;6.45;6.05;;;;;;;17.29;85.38;101207.84;4432242;32;20581;-68
2021/08/18 08:35:02;;;;;;;5.40;5.20;;;;;;;17.28;85.76;101205.28;4420866;32;20086;-68
2021/08/18 08:37:28;;;;;;;5.28;4.97;;;;;;;17.36;86.02;101197.66;4434549;32;20076;-69
2021/08/18 08:39:53;;;;;;;7.20;6.80;;;;;;;17.59;86.05;101203.06;4418998;32;20094;-71
2021/08/18 08:42:18;;;;;;;5.10;4.90;;;;;;;17.78;85.51;101200.75;4407536;32;20293;-68
2021/08/18 08:44:44;;;;;;;7.18;6.87;;;;;;;18.10;85.26;101201.03;4402478;32;20060;-68
2021/08/18 08:47:09;;;;;;;5.45;5.25;;;;;;;18.35;82.66;101196.47;4432691;32;20080;-68
2021/08/18 08:49:34;;;;;;;6.10;5.70;;;;;;;18.30;81.33;101204.81;4418592;32;20072;-69
2021/08/18 08:52:00;;;;;;;5.62;5.40;;;;;;;18.34;80.37;101202.75;4412811;32;20076;-69
2021/08/18 08:54:25;;;;;;;5.62;5.32;;;;;;;18.44;79.86;101192.25;4427286;32;20076;-69
2021/08/18 08:56:51;;;;;;;7.43;7.05;;;;;;;18.70;79.90;101198.19;4419848;32;20079;-69
2021/08/18 08:59:16;;;;;;;5.62;5.32;;;;;;;18.74;79.75;101207.63;4423917;32;20068;-69
2021/08/18 09:02:03;;;;;;;7.55;7.15;;;;;;;18.46;79.54;101209.78;4419136;32;20079;-68
2021/08/18 09:04:38;;;;;;;6.07;5.78;;;;;;;18.59;79.45;101215.00;4424685;32;20953;-70
2021/08/18 09:07:17;;;;;;;5.70;5.40;;;;;;;18.47;79.94;101202.66;4416959;32;20086;-68
2021/08/18 09:09:50;;;;;;;5.40;5.20;;;;;;;18.56;80.18;101193.94;4411225;32;20115;-68
2021/08/18 09:12:17;;;;;;;5.82;5.53;;;;;;;18.77;79.03;101209.22;4411670;32;21037;-69
2021/08/18 09:14:43;;;;;;;6.87;6.57;;;;;;;18.72;77.73;101202.44;4432689;32;20084;-68
2021/08/18 09:17:29;;;;;;;5.90;5.40;;;;;;;18.59;78.15;101206.19;4421807;32;20076;-71
2021/08/18 09:20:24;;;;;;;5.30;5.10;;;;;;;18.77;77.58;101204.72;4430302;32;20935;-67
2021/08/18 09:22:54;;;;;;;5.25;5.05;;;;;;;18.98;77.74;101215.50;4409913;32;20068;-66
2021/08/18 09:25:24;;;;;;;5.28;5.07;;;;;;;18.97;77.76;101207.66;4422772;32;20893;-67
2021/08/18 09:27:56;;;;;;;7.18;6.87;;;;;;;18.63;76.29;101207.63;4413891;32;20810;-68
2021/08/18 09:30:29;;;;;;;5.37;5.15;;;;;;;18.68;77.86;101211.62;4422326;32;20976;-68
2021/08/18 09:32:58;;;;;;;5.43;5.15;;;;;;;18.50;78.09;101192.63;4422578;32;20770;-71
2021/08/18 09:35:25;;;;;;;5.20;5.00;;;;;;;18.78;78.24;101208.22;4404921;32;20063;-74
2021/08/18 09:38:00;;;;;;;5.60;5.30;;;;;;;18.84;77.30;101213.09;4412521;32;20661;-72
2021/08/18 09:40:27;;;;;;;5.30;5.10;;;;;;;18.91;78.13;101206.34;4409601;32;20278;-74
2021/08/18 09:42:53;;;;;;;7.15;6.85;;;;;;;18.80;77.58;101207.16;4417953;32;20879;-73
2021/08/18 09:45:26;;;;;;;5.40;5.20;;;;;;;18.88;76.63;101209.22;4419289;32;20933;-73
2021/08/18 09:48:05;;;;;;;7.95;7.37;;;;;;;18.89;76.08;101210.94;4419082;32;20090;-73
2021/08/18 09:51:00;;;;;;;5.50;5.20;;;;;;;18.86;76.86;101211.16;4432169;32;20088;-71
2021/08/18 09:53:30;;;;;;;5.45;5.25;;;;;;;18.53;77.31;101215.47;4419164;32;20068;-69
2021/08/18 09:55:59;;;;;;;5.50;5.30;;;;;;;18.34;78.35;101219.56;4404867;32;20075;-73
2021/08/18 09:58:29;;;;;;;5.30;5.10;;;;;;;18.21;78.48;101216.13;4429303;32;20095;-75
2021/08/18 10:00:55;;;;;;;6.30;6.00;;;;;;;18.24;79.74;101220.34;4406631;32;20371;-73
2021/08/18 10:03:21;;;;;;;5.15;4.95;;;;;;;17.93;80.02;101225.34;4411585;32;20091;-73
2021/08/18 10:05:48;;;;;;;6.85;6.55;;;;;;;17.90;79.61;101226.41;4421942;32;20541;-74
2021/08/18 10:08:14;;;;;;;5.72;5.43;;;;;;;18.17;81.03;101203.22;4423320;32;20091;-74
2021/08/18 10:10:42;;;;;;;6.30;6.00;;;;;;;18.61;80.23;101220.19;4440497;32;20088;-73
2021/08/18 10:13:08;;;;;;;5.55;5.25;;;;;;;19.05;78.78;101211.41;4408230;32;20071;-72
2021/08/18 10:15:34;;;;;;;5.60;5.30;;;;;;;19.28;76.26;101208.69;4402822;32;20472;-68
2021/08/18 10:17:59;;;;;;;5.30;5.10;;;;;;;19.50;76.07;101198.00;4409795;32;20064;-69
2021/08/18 10:20:24;;;;;;;5.80;5.50;;;;;;;19.78;75.41;101203.72;4423804;32;20533;-69
2021/08/18 10:23:23;;;;;;;5.80;5.50;;;;;;;19.92;72.98;101213.22;4409188;32;20461;-70
2021/08/18 10:25:49;;;;;;;5.40;5.20;;;;;;;19.70;71.69;101206.16;4413404;32;20095;-70
2021/08/18 10:28:16;;;;;;;5.55;5.30;;;;;;;19.91;72.37;101209.72;4407399;32;20057;-70
2021/08/18 10:30:54;;;;;;;5.82;5.53;;;;;;;20.10;70.80;101214.34;4423217;32;20080;-70
2021/08/18 10:33:50;;;;;;;5.50;5.30;;;;;;;20.69;70.05;101217.41;4412646;32;20072;-70
2021/08/18 10:36:42;;;;;;;5.97;5.57;;;;;;;19.51;68.10;101079.88;4436123;32;20478;-69
2021/08/18 10:39:23;;;;;;;5.50;5.20;;;;;;;20.78;68.02;101205.09;4430299;32;20069;-69
2021/08/18 10:42:07;;;;;;;7.43;7.03;;;;;;;20.91;65.58;101197.72;4435322;32;20095;-69
2021/08/18 10:44:34;;;;;;;5.37;5.18;;;;;;;21.22;66.37;101208.31;4442474;32;20071;-70
2021/08/18 10:47:18;;;;;;;5.65;5.45;;;;;;;21.16;65.17;101191.03;4415574;32;20087;-69
2021/08/18 10:49:43;;;;;;;6.18;5.87;;;;;;;21.08;65.73;101177.53;4448888;32;20071;-69
2021/08/18 10:52:09;;;;;;;5.53;5.32;;;;;;;21.16;65.74;101185.69;4421977;32;20629;-70
2021/08/18 10:54:39;;;;;;;5.90;5.60;;;;;;;20.82;66.02;101193.16;4407945;32;20094;-70
2021/08/18 10:57:05;;;;;;;5.85;5.55;;;;;;;20.72;65.24;101185.97;4407464;32;21697;-70
2021/08/18 10:59:36;;;;;;;6.20;5.82;;;;;;;20.92;66.00;101196.72;4424599;32;20084;-70
2021/08/18 11:02:06;;;;;;;6.00;5.70;;;;;;;20.99;65.91;101195.19;4438008;32;20172;-70
2021/08/18 11:04:42;;;;;;;5.37;5.18;;;;;;;20.80;64.86;101195.97;4411939;32;20084;-69
2021/08/18 11:07:07;;;;;;;5.78;5.47;;;;;;;20.72;65.49;101177.97;4424718;32;20115;-68
2021/08/18 11:09:57;;;;;;;6.03;5.72;;;;;;;20.63;65.04;101186.78;4426814;32;20068;-70
2021/08/18 11:12:40;;;;;;;6.00;5.47;;;;;;;20.56;64.80;101193.56;4448824;32;20087;-69
2021/08/18 11:15:15;;;;;;;5.57;5.30;;;;;;;20.61;65.32;101190.56;4435904;32;20101;-69
2021/08/18 11:17:42;;;;;;;5.60;5.35;;;;;;;20.36;65.58;101178.47;4448088;32;20094;-69
2021/08/18 11:20:09;;;;;;;6.00;5.60;;;;;;;20.37;66.56;101188.16;4415179;32;20095;-69
2021/08/18 11:22:35;;;;;;;5.60;5.30;;;;;;;20.78;64.90;101179.25;4428802;32;20116;-70